Ramon Santamarina, Argentina
Current Conditions -  °F | °C
As of 6:00 AM on Saturday 20 Dec 2014 (Local Time) from SAZM Reporting Station
Overcast Overcast  
Wind Chill: 61°   Ceiling: 10000
Heat Index: 61°   Visibility: 5mi
Dew Point: 57°   Wind: 5mph
Humidity: 88%   Direction: 340°NNW
Pressure: 29.53"   Gusts: NA
Location:  38.46°S, 59.34°W
Report Text: SAZM 200900Z 34004KT 8000 SCT020 OVC10016/14 Q1000
Loading
Personal Weather Stations






























Interactive Weather Map New forecast layout! Learn more

10-Day Weather Forecast

Advertisements
Track Severe Weather on mobile